createdAt,value
2018-07-28T00:01:55.418Z,26.70
2018-07-28T00:04:00.269Z,26.70
2018-07-28T00:06:05.537Z,26.70
2018-07-28T00:08:10.349Z,26.70
2018-07-28T00:12:19.673Z,26.60
2018-07-28T00:14:24.382Z,26.60
2018-07-28T00:16:29.155Z,26.60
2018-07-28T00:18:34.088Z,26.50
2018-07-28T00:20:38.926Z,26.50
2018-07-28T00:22:43.759Z,26.50
2018-07-28T00:24:48.533Z,26.50
2018-07-28T00:26:53.396Z,26.50
2018-07-28T00:28:58.326Z,26.50
2018-07-28T00:31:03.501Z,26.40
2018-07-28T00:33:08.333Z,26.40
2018-07-28T00:35:13.176Z,26.40
2018-07-28T00:37:17.963Z,26.40
2018-07-28T00:39:22.650Z,26.40
2018-07-28T00:41:27.576Z,26.40
2018-07-28T00:43:32.606Z,26.40
2018-07-28T00:45:37.532Z,26.50
2018-07-28T00:47:42.372Z,26.50
2018-07-28T00:49:47.155Z,26.40
2018-07-28T00:51:52.352Z,26.40
2018-07-28T00:53:57.251Z,26.50
2018-07-28T00:56:02.031Z,26.80
2018-07-28T00:58:06.889Z,26.90
2018-07-28T01:00:11.754Z,26.90
2018-07-28T01:02:16.616Z,26.80
2018-07-28T01:04:21.372Z,26.60
2018-07-28T01:06:26.194Z,26.50
2018-07-28T01:08:31.002Z,26.70
2018-07-28T01:10:35.799Z,26.80
2018-07-28T01:12:40.581Z,26.80
2018-07-28T01:14:45.401Z,26.70
2018-07-28T01:16:50.187Z,26.60
2018-07-28T01:18:55.286Z,26.50
2018-07-28T01:21:00.074Z,26.40
2018-07-28T01:23:04.896Z,26.30
2018-07-28T01:25:11.391Z,26.40
2018-07-28T01:27:16.100Z,26.30
2018-07-28T01:29:20.830Z,26.30
2018-07-28T01:31:25.744Z,26.20
2018-07-28T01:33:30.494Z,26.20
2018-07-28T01:35:35.326Z,26.10
2018-07-28T01:37:40.151Z,26.10
2018-07-28T01:39:44.879Z,26.00
2018-07-28T01:41:49.671Z,26.00
2018-07-28T01:43:54.413Z,26.00
2018-07-28T01:45:59.241Z,25.90
2018-07-28T01:48:04.049Z,26.00
2018-07-28T01:50:10.162Z,26.00
2018-07-28T01:52:15.898Z,25.90
2018-07-28T01:54:20.715Z,25.80
2018-07-28T01:56:25.508Z,25.80
2018-07-28T01:58:31.114Z,25.80
2018-07-28T02:00:35.888Z,25.70
2018-07-28T02:02:40.841Z,25.60
2018-07-28T02:04:45.619Z,25.70
2018-07-28T02:06:50.392Z,25.70
2018-07-28T02:08:55.281Z,25.70
2018-07-28T02:11:00.122Z,25.70
2018-07-28T02:13:04.889Z,25.60
2018-07-28T02:15:09.792Z,25.60
2018-07-28T02:17:14.784Z,25.60
2018-07-28T02:19:20.070Z,25.60
2018-07-28T02:21:24.822Z,25.50
2018-07-28T02:23:29.553Z,25.40
2018-07-28T02:25:34.283Z,25.40
2018-07-28T02:27:39.022Z,25.40
2018-07-28T02:29:43.761Z,25.40
2018-07-28T02:31:48.499Z,25.40
2018-07-28T02:33:53.225Z,25.40
2018-07-28T02:35:57.933Z,25.40
2018-07-28T02:38:02.814Z,25.40
2018-07-28T02:40:08.066Z,25.40
2018-07-28T02:42:12.890Z,25.40
2018-07-28T02:44:17.601Z,25.40
2018-07-28T02:46:22.411Z,25.30
2018-07-28T02:48:27.115Z,25.30
2018-07-28T02:50:31.840Z,25.40
2018-07-28T02:52:36.736Z,25.30
2018-07-28T02:54:41.485Z,25.80
2018-07-28T02:56:46.164Z,26.00
2018-07-28T02:58:50.894Z,26.00
2018-07-28T03:00:55.765Z,26.00
2018-07-28T03:03:00.503Z,26.10
2018-07-28T03:05:06.257Z,26.00
2018-07-28T03:07:10.997Z,26.00
2018-07-28T03:09:15.785Z,26.00
2018-07-28T03:11:20.647Z,26.00
2018-07-28T03:13:25.498Z,25.80
2018-07-28T03:15:32.087Z,25.80
2018-07-28T03:17:36.918Z,25.70
2018-07-28T03:19:42.049Z,25.60
2018-07-28T03:21:47.396Z,25.40
2018-07-28T03:23:53.763Z,25.50
2018-07-28T03:25:58.484Z,25.50
2018-07-28T03:28:03.221Z,25.40
2018-07-28T03:30:08.137Z,25.20
2018-07-28T03:32:13.040Z,25.20
2018-07-28T03:34:17.813Z,25.30
2018-07-28T03:36:22.656Z,25.30
2018-07-28T03:38:27.442Z,25.20
2018-07-28T03:40:32.237Z,25.20
2018-07-28T03:42:37.035Z,25.10
2018-07-28T03:44:41.845Z,25.10
2018-07-28T03:46:46.771Z,25.10
2018-07-28T03:48:51.600Z,25.00
2018-07-28T03:50:56.414Z,25.00
2018-07-28T03:53:01.233Z,25.00
2018-07-28T03:55:07.604Z,25.00
2018-07-28T03:57:12.425Z,24.80
2018-07-28T03:59:17.220Z,24.70
2018-07-28T04:01:22.168Z,24.90
2018-07-28T04:03:26.992Z,24.80
2018-07-28T04:05:31.745Z,24.70
2018-07-28T04:07:36.511Z,24.60
2018-07-28T04:09:41.237Z,24.70
2018-07-28T04:11:45.949Z,24.70
2018-07-28T04:13:50.639Z,24.80
2018-07-28T04:18:06.963Z,24.70
2018-07-28T04:20:12.025Z,24.70
2018-07-28T04:22:18.366Z,24.60
2018-07-28T04:24:23.677Z,24.50
2018-07-28T04:26:28.835Z,24.40
2018-07-28T04:28:33.798Z,24.30
2018-07-28T04:30:41.697Z,24.30
2018-07-28T04:32:46.706Z,24.20
2018-07-28T04:34:51.415Z,24.20
2018-07-28T04:36:56.227Z,24.30
2018-07-28T04:39:01.033Z,24.20
2018-07-28T04:41:06.410Z,24.10
2018-07-28T04:43:11.284Z,24.10
2018-07-28T04:45:16.048Z,24.10
2018-07-28T04:47:20.848Z,24.00
2018-07-28T04:49:25.582Z,23.90
2018-07-28T04:51:31.064Z,23.90
2018-07-28T04:55:42.132Z,24.00
2018-07-28T04:57:46.860Z,24.10
2018-07-28T04:59:54.118Z,24.10
2018-07-28T05:01:58.930Z,24.00
2018-07-28T05:04:03.808Z,24.00
2018-07-28T05:06:08.521Z,24.00
2018-07-28T05:08:13.332Z,24.00
2018-07-28T05:10:18.152Z,24.10
2018-07-28T05:12:23.053Z,24.20
2018-07-28T05:14:27.799Z,24.30
2018-07-28T05:16:32.675Z,24.30
2018-07-28T05:18:37.543Z,24.40
2018-07-28T05:20:42.546Z,24.60
2018-07-28T05:22:47.306Z,24.60
2018-07-28T05:24:52.037Z,24.80
2018-07-28T05:26:56.834Z,24.80
2018-07-28T05:29:01.720Z,24.70
2018-07-28T05:31:06.589Z,24.70
2018-07-28T05:33:11.368Z,24.70
2018-07-28T05:35:16.480Z,24.70
2018-07-28T05:37:21.566Z,24.80
2018-07-28T05:39:26.453Z,24.80
2018-07-28T05:41:31.327Z,24.70
2018-07-28T05:43:36.883Z,24.60
2018-07-28T05:45:41.694Z,24.60
2018-07-28T05:47:46.645Z,24.80
2018-07-28T05:49:51.409Z,24.90
2018-07-28T05:51:56.200Z,25.10
2018-07-28T05:54:00.993Z,25.10
2018-07-28T05:56:06.060Z,25.10
2018-07-28T05:58:10.989Z,25.00
2018-07-28T06:00:15.848Z,25.00
2018-07-28T06:02:20.708Z,25.00
2018-07-28T06:04:25.475Z,25.10
2018-07-28T06:06:30.457Z,25.00
2018-07-28T06:08:35.512Z,25.00
2018-07-28T06:10:40.266Z,25.10
2018-07-28T06:12:44.997Z,24.90
2018-07-28T06:14:49.725Z,24.60
2018-07-28T06:16:54.461Z,24.60
2018-07-28T06:18:59.384Z,24.50
2018-07-28T06:21:04.309Z,24.40
2018-07-28T06:23:09.064Z,24.20
2018-07-28T06:25:13.920Z,24.00
2018-07-28T06:27:18.721Z,23.80
2018-07-28T06:29:23.480Z,23.80
2018-07-28T06:31:28.954Z,23.70
2018-07-28T06:33:33.833Z,23.60
2018-07-28T06:35:38.905Z,23.50
2018-07-28T06:37:44.298Z,23.50
2018-07-28T06:39:49.901Z,23.40
2018-07-28T06:41:54.776Z,23.40
2018-07-28T06:44:03.716Z,23.50
2018-07-28T06:46:09.008Z,23.50
2018-07-28T06:48:13.800Z,23.60
2018-07-28T06:50:18.813Z,23.60
2018-07-28T06:52:23.660Z,23.60
2018-07-28T06:54:29.181Z,23.70
2018-07-28T06:56:34.215Z,23.70
2018-07-28T06:58:39.106Z,23.80
2018-07-28T07:00:44.270Z,23.90
2018-07-28T07:02:49.399Z,24.00
2018-07-28T07:04:55.084Z,24.10
2018-07-28T07:07:00.084Z,24.10
2018-07-28T07:09:08.363Z,24.30
2018-07-28T07:11:13.366Z,24.30
2018-07-28T07:13:18.419Z,24.40
2018-07-28T07:15:23.271Z,24.50
2018-07-28T07:17:28.269Z,24.60
2018-07-28T07:19:33.161Z,24.70
2018-07-28T07:21:38.676Z,24.70
2018-07-28T07:23:43.514Z,24.90
2018-07-28T07:25:48.365Z,25.00
2018-07-28T07:27:53.355Z,25.00
2018-07-28T07:29:58.287Z,24.90
2018-07-28T07:32:03.154Z,25.10
2018-07-28T07:34:09.245Z,25.10
2018-07-28T07:36:14.349Z,25.10
2018-07-28T07:38:19.770Z,25.10
2018-07-28T07:40:24.538Z,25.10
2018-07-28T07:42:29.512Z,25.20
2018-07-28T07:44:34.356Z,25.20
2018-07-28T07:46:39.528Z,25.20
2018-07-28T07:48:44.434Z,25.20
2018-07-28T07:50:49.261Z,25.20
2018-07-28T07:52:54.396Z,25.20
2018-07-28T07:54:59.252Z,25.20
2018-07-28T07:57:04.059Z,25.20
2018-07-28T07:59:09.030Z,25.30
2018-07-28T08:01:14.019Z,25.40
2018-07-28T08:03:19.062Z,25.40
2018-07-28T08:05:24.961Z,25.50
2018-07-28T08:07:30.353Z,25.60
2018-07-28T08:09:35.171Z,25.60
2018-07-28T08:11:40.417Z,25.60
2018-07-28T08:13:45.239Z,25.60
2018-07-28T08:15:50.525Z,25.70
2018-07-28T08:17:55.543Z,25.60
2018-07-28T08:20:00.453Z,25.60
2018-07-28T08:22:06.608Z,25.50
2018-07-28T08:24:11.637Z,25.40
2018-07-28T08:26:17.058Z,25.40
2018-07-28T08:28:22.239Z,25.40
2018-07-28T08:30:27.248Z,25.40
2018-07-28T08:32:32.203Z,25.40
2018-07-28T08:34:37.416Z,25.40
2018-07-28T08:36:42.929Z,25.40
2018-07-28T08:38:47.982Z,25.40
2018-07-28T08:40:52.926Z,25.50
2018-07-28T08:42:58.103Z,25.60
2018-07-28T08:45:03.062Z,25.70
2018-07-28T08:47:08.115Z,25.70
2018-07-28T08:49:12.999Z,25.80
2018-07-28T08:51:17.881Z,25.70
2018-07-28T08:55:27.841Z,25.70
2018-07-28T08:57:32.622Z,25.80
2018-07-28T08:59:37.406Z,25.80
2018-07-28T09:01:42.256Z,26.00
2018-07-28T09:03:47.295Z,26.00
2018-07-28T09:10:42.825Z,26.00
2018-07-28T09:12:49.115Z,26.10
2018-07-28T09:14:54.147Z,26.10
2018-07-28T09:16:58.982Z,26.20
2018-07-28T09:19:06.299Z,26.30
2018-07-28T09:21:11.151Z,26.30
2018-07-28T09:23:15.990Z,26.50
2018-07-28T09:25:20.685Z,26.50
2018-07-28T09:27:25.637Z,26.50
2018-07-28T09:29:30.662Z,26.50
2018-07-28T09:31:35.703Z,26.50
2018-07-28T09:33:40.694Z,26.60
2018-07-28T09:37:50.322Z,26.80
2018-07-28T09:39:55.484Z,27.10
2018-07-28T09:42:00.538Z,27.20
2018-07-28T09:44:05.477Z,27.20
2018-07-28T09:46:10.519Z,27.10
2018-07-28T09:54:34.970Z,27.30
2018-07-28T09:56:40.126Z,27.20
2018-07-28T09:58:45.445Z,27.20
2018-07-28T10:00:55.253Z,27.20
2018-07-28T10:03:00.158Z,27.10
2018-07-28T10:05:05.099Z,27.00
2018-07-28T10:07:10.018Z,27.00
2018-07-28T10:09:15.587Z,27.00
2018-07-28T10:11:20.660Z,27.10
2018-07-28T10:13:26.192Z,27.10
2018-07-28T10:15:31.313Z,27.20
2018-07-28T10:19:40.877Z,27.50
2018-07-28T10:21:45.681Z,27.40
2018-07-28T10:25:55.089Z,27.50
2018-07-28T10:28:00.100Z,27.60
2018-07-28T10:30:06.083Z,27.60
2018-07-28T10:32:11.337Z,27.60
2018-07-28T10:34:16.204Z,27.70
2018-07-28T10:36:21.130Z,27.60
2018-07-28T10:38:26.030Z,27.60
2018-07-28T10:40:30.827Z,27.80
2018-07-28T10:42:36.165Z,27.80
2018-07-28T10:44:41.497Z,27.80
2018-07-28T10:46:46.496Z,27.90
2018-07-28T10:48:53.521Z,27.90
2018-07-28T10:50:58.373Z,27.90
2018-07-28T10:53:03.193Z,28.00
2018-07-28T10:55:07.995Z,27.90
2018-07-28T10:57:12.893Z,27.80
2018-07-28T10:59:17.783Z,27.80
2018-07-28T11:01:22.506Z,28.00
2018-07-28T11:03:27.366Z,28.10
2018-07-28T11:05:32.157Z,28.00
2018-07-28T11:07:36.934Z,28.10
2018-07-28T11:09:41.871Z,28.30
2018-07-28T11:11:46.953Z,28.20
2018-07-28T11:13:51.749Z,28.00
2018-07-28T11:15:56.518Z,28.00
2018-07-28T11:18:01.251Z,27.90
2018-07-28T11:20:08.828Z,28.00
2018-07-28T11:24:18.156Z,28.20
2018-07-28T11:26:23.160Z,28.10
2018-07-28T11:28:27.867Z,28.20
2018-07-28T11:30:32.754Z,28.10
2018-07-28T11:32:54.152Z,28.00
2018-07-28T11:35:15.299Z,27.90
2018-07-28T11:38:08.339Z,27.90
2018-07-28T11:42:34.671Z,28.00
2018-07-28T11:45:08.604Z,28.30
2018-07-28T11:47:13.820Z,28.10
2018-07-28T11:49:18.624Z,28.20
2018-07-28T11:51:23.533Z,28.30
2018-07-28T11:53:28.284Z,28.40
2018-07-28T11:55:33.118Z,28.70
2018-07-28T11:57:37.866Z,29.00
2018-07-28T11:59:42.685Z,29.10
2018-07-28T12:01:48.231Z,29.20
2018-07-28T12:03:52.953Z,29.30
2018-07-28T12:05:57.768Z,29.20
2018-07-28T12:08:02.500Z,29.20
2018-07-28T12:10:09.069Z,29.20
2018-07-28T12:12:13.804Z,29.20
2018-07-28T12:14:18.792Z,29.10
2018-07-28T12:16:23.639Z,29.30
2018-07-28T12:18:28.491Z,29.40
2018-07-28T12:20:33.135Z,29.60
2018-07-28T12:22:38.094Z,29.80
2018-07-28T12:24:43.082Z,29.70
2018-07-28T12:26:48.276Z,29.70
2018-07-28T12:28:53.143Z,29.70
2018-07-28T12:30:57.963Z,29.70
2018-07-28T12:33:02.884Z,29.80
2018-07-28T12:35:07.938Z,29.60
2018-07-28T12:37:12.685Z,29.60
2018-07-28T12:39:17.407Z,29.40
2018-07-28T12:41:22.075Z,29.40
2018-07-28T12:43:26.840Z,29.40
2018-07-28T12:45:31.581Z,29.50
2018-07-28T12:47:36.426Z,29.40
2018-07-28T12:49:41.846Z,29.40
2018-07-28T12:51:46.639Z,29.50
2018-07-28T12:53:51.408Z,29.70
2018-07-28T12:55:56.201Z,29.60
2018-07-28T12:58:01.051Z,29.70
2018-07-28T13:00:06.074Z,29.70
2018-07-28T13:02:10.830Z,29.60
2018-07-28T13:04:15.963Z,29.60
2018-07-28T13:06:20.895Z,29.60
2018-07-28T13:08:25.664Z,29.60
2018-07-28T13:10:30.734Z,29.50
2018-07-28T13:12:35.644Z,29.60
2018-07-28T13:14:40.499Z,29.70
2018-07-28T13:16:45.212Z,29.60
2018-07-28T13:18:50.017Z,29.70
2018-07-28T13:20:55.386Z,29.70
2018-07-28T13:23:00.123Z,29.70
2018-07-28T13:25:06.089Z,29.60
2018-07-28T13:27:11.264Z,29.70
2018-07-28T13:29:15.987Z,29.60
2018-07-28T13:31:21.178Z,29.50
2018-07-28T13:33:26.198Z,29.50
2018-07-28T13:35:31.049Z,29.50
2018-07-28T13:37:36.349Z,29.60
2018-07-28T13:39:41.253Z,29.70
2018-07-28T13:41:46.424Z,29.60
2018-07-28T13:43:51.839Z,29.50
2018-07-28T13:45:56.652Z,29.50
2018-07-28T13:48:01.422Z,29.40
2018-07-28T13:50:06.462Z,29.40
2018-07-28T13:52:11.559Z,29.30
2018-07-28T13:54:16.308Z,29.30
2018-07-28T13:56:21.439Z,29.30
2018-07-28T13:58:26.526Z,29.50
2018-07-28T14:00:31.205Z,29.80
2018-07-28T14:02:36.049Z,29.90
2018-07-28T14:04:40.872Z,30.00
2018-07-28T14:06:45.734Z,30.10
2018-07-28T14:08:50.568Z,30.10
2018-07-28T14:10:55.422Z,30.30
2018-07-28T14:13:00.160Z,30.20
2018-07-28T14:15:05.545Z,30.20
2018-07-28T14:17:10.317Z,30.00
2018-07-28T14:19:15.245Z,29.90
2018-07-28T14:21:20.154Z,29.90
2018-07-28T14:23:25.186Z,29.90
2018-07-28T14:25:29.977Z,30.00
2018-07-28T14:27:34.928Z,29.80
2018-07-28T14:29:39.616Z,29.90
2018-07-28T14:31:44.464Z,29.90
2018-07-28T14:33:49.499Z,29.80
2018-07-28T14:35:55.608Z,29.80
2018-07-28T14:38:00.526Z,29.80
2018-07-28T14:40:05.626Z,29.80
2018-07-28T14:42:10.655Z,29.70
2018-07-28T14:44:15.444Z,29.60
2018-07-28T14:46:20.380Z,29.60
2018-07-28T14:48:25.168Z,29.50
2018-07-28T14:50:30.164Z,29.60
2018-07-28T14:52:35.040Z,29.60
2018-07-28T14:54:39.921Z,29.60
2018-07-28T14:56:44.723Z,29.60
2018-07-28T14:58:49.598Z,29.50
2018-07-28T15:00:54.452Z,29.40
2018-07-28T15:02:59.368Z,29.30
2018-07-28T15:05:04.345Z,29.30
2018-07-28T15:07:09.474Z,29.20
2018-07-28T15:09:14.303Z,29.10
2018-07-28T15:11:19.508Z,29.20
2018-07-28T15:13:24.784Z,29.20
2018-07-28T15:15:29.575Z,29.20
2018-07-28T15:17:34.628Z,29.10
2018-07-28T15:19:39.601Z,28.90
2018-07-28T15:21:44.461Z,29.10
2018-07-28T15:23:49.471Z,29.10
2018-07-28T15:25:54.661Z,29.20
2018-07-28T15:27:59.824Z,29.20
2018-07-28T15:30:05.199Z,29.00
2018-07-28T15:32:10.107Z,29.10
2018-07-28T15:34:15.071Z,29.10
2018-07-28T15:36:20.122Z,29.10
2018-07-28T15:38:25.043Z,29.20
2018-07-28T15:40:30.003Z,29.20
2018-07-28T15:42:35.024Z,29.20
2018-07-28T15:44:39.962Z,29.10
2018-07-28T15:46:46.294Z,29.10
2018-07-28T15:48:51.442Z,29.10
2018-07-28T15:50:56.549Z,29.20
2018-07-28T15:53:01.462Z,29.10
2018-07-28T15:55:06.685Z,29.10
2018-07-28T15:57:11.482Z,29.00
2018-07-28T15:59:16.327Z,29.00
2018-07-28T16:01:21.118Z,29.10
2018-07-28T16:03:26.011Z,29.30
2018-07-28T16:05:30.756Z,29.30
2018-07-28T16:07:35.880Z,29.40
2018-07-28T16:09:41.248Z,29.40
2018-07-28T16:11:46.205Z,29.30
2018-07-28T16:13:51.066Z,29.20
2018-07-28T16:15:55.840Z,29.10
2018-07-28T16:18:00.584Z,28.90
2018-07-28T16:20:05.519Z,28.80
2018-07-28T16:22:10.291Z,28.50
2018-07-28T16:26:19.610Z,28.40
2018-07-28T16:28:24.303Z,28.40
2018-07-28T16:30:29.030Z,28.40
2018-07-28T16:32:33.970Z,28.40
2018-07-28T16:34:38.731Z,28.60
2018-07-28T16:36:44.174Z,28.80
2018-07-28T16:38:48.865Z,28.80
2018-07-28T16:40:53.724Z,28.70
2018-07-28T16:42:58.512Z,28.50
2018-07-28T16:45:04.116Z,28.60
2018-07-28T16:47:09.392Z,28.40
2018-07-28T16:49:14.168Z,28.20
2018-07-28T16:51:19.039Z,28.20
2018-07-28T16:55:29.224Z,27.90
2018-07-28T16:57:34.053Z,27.80
2018-07-28T16:59:38.916Z,27.90
2018-07-28T17:01:43.620Z,28.00
2018-07-28T17:03:48.533Z,27.80
2018-07-28T17:05:53.262Z,27.80
2018-07-28T17:07:58.193Z,27.80
2018-07-28T17:10:03.003Z,28.00
2018-07-28T17:12:09.667Z,28.00
2018-07-28T17:14:14.418Z,27.90
2018-07-28T17:16:19.236Z,28.20
2018-07-28T17:18:24.233Z,28.30
2018-07-28T17:20:29.051Z,28.40
2018-07-28T17:22:33.818Z,28.40
2018-07-28T17:26:43.029Z,28.70
2018-07-28T17:28:47.753Z,28.50
2018-07-28T17:30:52.675Z,28.40
2018-07-28T17:32:57.493Z,28.40
2018-07-28T17:35:02.528Z,28.30
2018-07-28T17:37:07.560Z,28.20
2018-07-28T17:39:12.733Z,28.30
2018-07-28T17:41:17.668Z,28.30
2018-07-28T17:43:22.598Z,28.50
2018-07-28T17:45:27.683Z,28.40
2018-07-28T17:47:32.458Z,28.40
2018-07-28T17:49:37.217Z,28.30
2018-07-28T17:51:42.014Z,28.30
2018-07-28T17:53:46.823Z,28.10
2018-07-28T17:55:51.531Z,28.00
2018-07-28T17:57:56.242Z,27.90
2018-07-28T18:00:01.169Z,28.00
2018-07-28T18:02:06.122Z,27.90
2018-07-28T18:04:10.819Z,27.80
2018-07-28T18:06:15.637Z,27.70
2018-07-28T18:08:20.347Z,27.70
2018-07-28T18:10:25.198Z,27.60
2018-07-28T18:12:30.414Z,27.60
2018-07-28T18:14:35.619Z,27.40
2018-07-28T18:16:40.322Z,27.40
2018-07-28T18:20:49.652Z,27.10
2018-07-28T18:22:54.390Z,27.20
2018-07-28T18:24:59.986Z,27.00
2018-07-28T18:27:04.948Z,26.90
2018-07-28T18:29:09.696Z,26.80
2018-07-28T18:31:14.583Z,26.80
2018-07-28T18:33:19.415Z,26.80
2018-07-28T18:35:24.358Z,26.90
2018-07-28T18:37:29.173Z,26.80
2018-07-28T18:39:33.931Z,26.80
2018-07-28T18:41:38.728Z,26.60
2018-07-28T18:43:43.612Z,26.50
2018-07-28T18:45:48.280Z,26.60
2018-07-28T18:47:53.046Z,26.60
2018-07-28T18:49:57.818Z,26.50
2018-07-28T18:52:02.613Z,26.50
2018-07-28T18:54:07.346Z,26.50
2018-07-28T18:56:12.038Z,26.40
2018-07-28T18:58:16.842Z,26.30
2018-07-28T19:02:26.019Z,26.20
2018-07-28T19:04:30.754Z,26.20
2018-07-28T19:06:35.596Z,26.00
2018-07-28T19:08:40.957Z,26.00
2018-07-28T19:10:45.944Z,26.00
2018-07-28T19:12:56.165Z,26.00
2018-07-28T19:15:01.200Z,25.90
2018-07-28T19:17:06.071Z,25.80
2018-07-28T19:19:17.253Z,25.80
2018-07-28T19:21:22.095Z,25.70
2018-07-28T19:23:31.907Z,25.60
2018-07-28T19:25:36.700Z,25.50
2018-07-28T19:29:50.596Z,25.50
2018-07-28T19:31:55.851Z,25.40
2018-07-28T19:34:00.988Z,25.50
2018-07-28T19:36:11.200Z,25.30
2018-07-28T19:38:16.169Z,25.20
2018-07-28T19:40:21.224Z,25.10
2018-07-28T19:42:31.133Z,25.10
2018-07-28T19:44:36.046Z,25.00
2018-07-28T19:46:41.277Z,24.90
2018-07-28T19:48:48.532Z,24.90
2018-07-28T19:52:59.248Z,24.70
2018-07-28T19:55:04.297Z,24.80
2018-07-28T19:57:09.160Z,24.80
2018-07-28T19:59:14.276Z,24.70
2018-07-28T20:01:19.282Z,24.60
2018-07-28T20:05:28.773Z,24.50
2018-07-28T20:09:38.408Z,24.50
2018-07-28T20:11:43.424Z,24.50
2018-07-28T20:13:48.423Z,24.40
2018-07-28T20:15:53.361Z,24.30
2018-07-28T20:17:58.407Z,24.10
2018-07-28T20:20:03.233Z,24.20
2018-07-28T20:22:08.251Z,24.20
2018-07-28T20:24:13.255Z,24.20
2018-07-28T20:26:18.194Z,24.20
2018-07-28T20:28:23.084Z,24.20
2018-07-28T20:30:27.922Z,24.10
2018-07-28T20:32:32.747Z,24.00
2018-07-28T20:34:37.685Z,24.10
2018-07-28T20:36:42.609Z,24.00
2018-07-28T20:38:47.380Z,24.00
2018-07-28T20:40:52.193Z,23.90
2018-07-28T20:45:01.384Z,23.80
2018-07-28T20:47:08.183Z,23.60
2018-07-28T20:49:13.314Z,23.60
2018-07-28T20:51:18.159Z,23.60
2018-07-28T20:53:23.075Z,23.60
2018-07-28T20:55:28.124Z,23.50
2018-07-28T20:59:37.516Z,23.60
2018-07-28T21:01:42.217Z,23.60
2018-07-28T21:03:46.936Z,23.50
2018-07-28T21:05:51.629Z,23.50
2018-07-28T21:07:56.705Z,23.50
2018-07-28T21:10:01.477Z,23.40
2018-07-28T21:12:06.757Z,23.40
2018-07-28T21:14:11.878Z,23.30
2018-07-28T21:16:16.812Z,23.20
2018-07-28T21:18:21.493Z,23.20
2018-07-28T21:20:26.727Z,23.20
2018-07-28T21:22:32.013Z,23.20
2018-07-28T21:24:37.562Z,23.20
2018-07-28T21:26:42.489Z,23.30
2018-07-28T21:28:47.576Z,23.20
2018-07-28T21:30:52.485Z,23.20
2018-07-28T21:32:57.236Z,23.20
2018-07-28T21:35:02.241Z,23.10
2018-07-28T21:37:07.195Z,23.10
2018-07-28T21:39:12.239Z,23.00
2018-07-28T21:41:16.992Z,23.00
2018-07-28T21:43:21.690Z,23.00
2018-07-28T21:45:26.764Z,22.90
2018-07-28T21:47:31.569Z,22.90
2018-07-28T21:49:36.364Z,22.90
2018-07-28T21:51:41.108Z,22.90
2018-07-28T21:53:45.876Z,22.80
2018-07-28T21:55:50.550Z,22.80
2018-07-28T21:57:55.245Z,22.70
2018-07-28T21:59:59.971Z,22.70
2018-07-28T22:02:04.722Z,22.70
2018-07-28T22:04:09.453Z,22.70
2018-07-28T22:06:14.269Z,22.70
2018-07-28T22:08:18.967Z,22.70
2018-07-28T22:10:24.081Z,22.70
2018-07-28T22:12:29.056Z,22.80
2018-07-28T22:14:33.748Z,22.70
2018-07-28T22:16:38.522Z,22.60
2018-07-28T22:18:43.414Z,22.60
2018-07-28T22:20:48.562Z,22.50
2018-07-28T22:22:53.464Z,22.30
2018-07-28T22:24:59.416Z,22.30
2018-07-28T22:27:04.402Z,22.30
2018-07-28T22:29:09.421Z,22.20
2018-07-28T22:31:14.284Z,22.20
2018-07-28T22:33:19.270Z,22.10
2018-07-28T22:35:24.070Z,22.00
2018-07-28T22:37:29.090Z,22.00
2018-07-28T22:39:33.797Z,21.90
2018-07-28T22:41:38.563Z,21.90
2018-07-28T22:43:43.512Z,21.90
2018-07-28T22:45:48.474Z,21.90
2018-07-28T22:47:53.145Z,21.90
2018-07-28T22:49:57.803Z,21.80
2018-07-28T22:52:02.531Z,21.80
2018-07-28T22:54:07.249Z,21.80
2018-07-28T22:56:11.905Z,21.70
2018-07-28T22:58:16.580Z,21.60
2018-07-28T23:00:21.361Z,21.60
2018-07-28T23:02:26.170Z,21.60
2018-07-28T23:04:31.107Z,21.50
2018-07-28T23:06:35.926Z,21.60
2018-07-28T23:08:40.672Z,21.60
2018-07-28T23:10:45.403Z,21.50
2018-07-28T23:12:50.215Z,21.60
2018-07-28T23:14:54.937Z,21.50
2018-07-28T23:16:59.718Z,21.50
2018-07-28T23:19:04.431Z,21.40
2018-07-28T23:21:09.342Z,21.40
2018-07-28T23:23:14.195Z,21.20
2018-07-28T23:25:18.929Z,21.20
2018-07-28T23:27:23.638Z,21.20
2018-07-28T23:29:28.338Z,21.20
2018-07-28T23:31:34.014Z,21.20
2018-07-28T23:33:38.682Z,21.30
2018-07-28T23:35:43.332Z,21.20
2018-07-28T23:37:48.084Z,21.20
2018-07-28T23:39:52.910Z,21.20
2018-07-28T23:41:57.684Z,21.20
2018-07-28T23:44:02.378Z,21.20
2018-07-28T23:46:07.239Z,21.20
2018-07-28T23:48:12.279Z,21.10
2018-07-28T23:50:17.185Z,21.10
2018-07-28T23:52:22.207Z,21.20
2018-07-28T23:54:27.120Z,21.20
2018-07-28T23:56:32.203Z,21.10
2018-07-28T23:58:37.465Z,21.10
